Map

Track Data

SID SEASON NUMBER BASIN SUBBASIN NAME ISO_TIME NATURE LAT LON WMO_WIND WMO_PRES WMO_AGENCY TRACK_TYPE DIST2LAND LANDFALL IFLAG USA_AGENCY USA_ATCF_ID USA_LAT USA_LON USA_RECORD USA_STATUS USA_WIND USA_PRES USA_SSHS USA_R34_NE USA_R34_SE USA_R34_SW USA_R34_NW USA_R50_NE USA_R50_SE USA_R50_SW USA_R50_NW USA_R64_NE USA_R64_SE USA_R64_SW USA_R64_NW USA_POCI USA_ROCI USA_RMW USA_EYE TOKYO_LAT TOKYO_LON TOKYO_GRADE TOKYO_WIND TOKYO_PRES TOKYO_R50_DIR TOKYO_R50_LONG TOKYO_R50_SHORT TOKYO_R30_DIR TOKYO_R30_LONG TOKYO_R30_SHORT TOKYO_LAND CMA_LAT CMA_LON CMA_CAT CMA_WIND CMA_PRES HKO_LAT HKO_LON HKO_CAT HKO_WIND HKO_PRES NEWDELHI_LAT NEWDELHI_LON NEWDELHI_GRADE NEWDELHI_WIND NEWDELHI_PRES NEWDELHI_CI NEWDELHI_DP NEWDELHI_POCI REUNION_LAT REUNION_LON REUNION_TYPE REUNION_WIND REUNION_PRES REUNION_TNUM REUNION_CI REUNION_RMW REUNION_R34_NE REUNION_R34_SE REUNION_R34_SW REUNION_R34_NW REUNION_R50_NE REUNION_R50_SE REUNION_R50_SW REUNION_R50_NW REUNION_R64_NE REUNION_R64_SE REUNION_R64_SW REUNION_R64_NW BOM_LAT BOM_LON BOM_TYPE BOM_WIND BOM_PRES BOM_TNUM BOM_CI BOM_RMW BOM_R34_NE BOM_R34_SE BOM_R34_SW BOM_R34_NW BOM_R50_NE BOM_R50_SE BOM_R50_SW BOM_R50_NW BOM_R64_NE BOM_R64_SE BOM_R64_SW BOM_R64_NW BOM_ROCI BOM_POCI BOM_EYE BOM_POS_METHOD BOM_PRES_METHOD NADI_LAT NADI_LON NADI_CAT NADI_WIND NADI_PRES WELLINGTON_LAT WELLINGTON_LON WELLINGTON_WIND WELLINGTON_PRES DS824_LAT DS824_LON DS824_STAGE DS824_WIND DS824_PRES TD9636_LAT TD9636_LON TD9636_STAGE TD9636_WIND TD9636_PRES TD9635_LAT TD9635_LON TD9635_WIND TD9635_PRES TD9635_ROCI NEUMANN_LAT NEUMANN_LON NEUMANN_CLASS NEUMANN_WIND NEUMANN_PRES MLC_LAT MLC_LON MLC_CLASS MLC_WIND MLC_PRES USA_GUST BOM_GUST BOM_GUST_PER REUNION_GUST REUNION_GUST_PER USA_SEAHGT USA_SEARAD_NE USA_SEARAD_SE USA_SEARAD_SW USA_SEARAD_NW STORM_SPEED STORM_DIR
1965364N08088 1965 125 NI BB NOT_NAMED 1965-12-30 03:00:00 NR 7.80000 87.9000 main 668 638 __________O___ -1 7.80000 87.9000 1 7 303
1965364N08088 1965 125 NI BB NOT_NAMED 1965-12-30 06:00:00 TS 7.99860 87.5963 main 638 610 O________OP___ jtwc_io IO141965 8.00000 87.6000 -1 8.00000 87.6000 TC 25 7.99721 87.5926 1 7 306
1965364N08088 1965 125 NI BB NOT_NAMED 1965-12-30 09:00:00 TS 8.20520 87.3292 main 610 589 P________PP___ IO141965 8.22002 87.3526 -1 8.22002 87.3526 TC 25 8.18544 87.2980 1 6 306
1965364N08088 1965 125 NI BB NOT_NAMED 1965-12-30 12:00:00 TS 8.38237 87.0717 main 590 560 O________OP___ jtwc_io IO141965 8.40000 87.1000 -1 8.40000 87.1000 TC 25 8.35594 87.0294 1 6 302
1965364N08088 1965 125 NI BB NOT_NAMED 1965-12-30 15:00:00 TS 8.51000 86.8283 main 560 540 P________PO___ IO141965 8.51500 86.8425 -1 8.51500 86.8425 TC 25 8.50000 86.8000 1 5 296
1965364N08088 1965 125 NI BB NOT_NAMED 1965-12-30 18:00:00 TS 8.60435 86.6044 main 540 521 O________OP___ jtwc_io IO141965 8.60000 86.6000 -1 8.60000 86.6000 TC 25 8.61305 86.6131 1 4 295
1965364N08088 1965 125 NI BB NOT_NAMED 1965-12-30 21:00:00 TS 8.70225 86.4207 main 521 502 P________PP___ IO141965 8.69993 86.4150 -1 8.69993 86.4150 TC 30 8.70687 86.4320 1 4 296
1965364N08088 1965 125 NI BB NOT_NAMED 1965-12-31 00:00:00 TS 8.79910 86.2033 main 502 474 O________OP___ jtwc_io IO141965 8.80000 86.2000 -1 8.80000 86.2000 TC 35 8.79729 86.2099 1 5 291
1965364N08088 1965 125 NI BB NOT_NAMED 1965-12-31 03:00:00 TS 8.89490 85.9116 main 474 436 P________PO___ IO141965 8.89235 85.9174 -1 8.89235 85.9174 TC 35 8.90000 85.9000 2 8 286
1965364N08088 1965 125 NI BB NOT_NAMED 1965-12-31 06:00:00 TS 9.00936 85.4704 main 436 380 O________OP___ jtwc_io IO141965 9.00000 85.5000 -1 9.00000 85.5000 TC 35 9.02809 85.4111 2 11 284
1965364N08088 1965 125 NI BB NOT_NAMED 1965-12-31 09:00:00 TS 9.14711 84.8559 main 380 321 P________PP___ IO141965 9.13523 84.8650 -1 9.13523 84.8650 TC 35 9.17086 84.8376 2 13 284
1965364N08088 1965 125 NI BB NOT_NAMED 1965-12-31 12:00:00 TS 9.30937 84.2151 main 321 281 O________OP___ jtwc_io IO141965 9.30000 84.2000 -1 9.30000 84.2000 TC 35 9.32810 84.2454 2 12 287
1965364N08088 1965 125 NI BB NOT_NAMED 1965-12-31 15:00:00 TS 9.49491 83.7033 main 281 254 P________PO___ IO141965 9.49236 83.7050 -1 9.49236 83.7050 TC 35 9.50000 83.7000 3 10 293
1965364N08088 1965 125 NI BB NOT_NAMED 1965-12-31 18:00:00 TS 9.68968 83.2907 main 254 230 O________OP___ jtwc_io IO141965 9.70000 83.3000 -1 9.70000 83.3000 TC 35 9.66904 83.2720 3 9 296
1965364N08088 1965 125 NI BB NOT_NAMED 1965-12-31 21:00:00 TS 9.87983 82.9191 main 230 216 P________PP___ IO141965 9.89243 82.9274 -1 9.89243 82.9274 TC 35 9.85461 82.9023 3 8 300
1965364N08088 1965 125 NI BB NOT_NAMED 1966-01-01 00:00:00 TS 10.0876 82.5938 main 216 199 O________OP___ jtwc_io IO141965 10.1000 82.6000 -1 10.1000 82.6000 TC 35 10.0629 82.5814 3 8 305
1965364N08088 1965 125 NI BB NOT_NAMED 1966-01-01 03:00:00 TS 10.3233 82.2850 main 199 188 P________PO___ IO141965 10.3350 82.2775 -1 10.3350 82.2775 TC 35 10.3000 82.3000 3 8 311
1965364N08088 1965 125 NI BB NOT_NAMED 1966-01-01 06:00:00 TS 10.5877 82.0022 main 196 196 O________OP___ jtwc_io IO141965 10.6000 82.0000 -1 10.6000 82.0000 TC 35 10.5630 82.0067 3 8 318
1965364N08088 1965 125 NI BB NOT_NAMED 1966-01-01 09:00:00 TS 10.8800 81.7692 main 207 185 P________PP___ IO141965 10.8925 81.7775 -1 10.8925 81.7775 TC 35 10.8549 81.7527 3 7 325
1965364N08088 1965 125 NI BB NOT_NAMED 1966-01-01 12:00:00 TS 11.1898 81.5825 main 185 165 O________OP___ jtwc_io IO141965 11.2000 81.6000 -1 11.2000 81.6000 TC 35 11.1693 81.5473 3 7 331
1965364N08088 1965 125 NI BB NOT_NAMED 1966-01-01 15:00:00 TS 11.4950 81.4183 main 167 143 P________PO___ IO141965 11.4925 81.4275 -1 11.4925 81.4275 TC 35 11.5000 81.4000 3 7 335
1965364N08088 1965 125 NI BB NOT_NAMED 1966-01-01 18:00:00 TS 11.7942 81.2924 main 143 117 O________OP___ jtwc_io IO141965 11.8000 81.3000 -1 11.8000 81.3000 TC 35 11.7827 81.2772 3 7 341
1965364N08088 1965 125 NI BB NOT_NAMED 1966-01-01 21:00:00 TS 12.1091 81.2086 main 117 108 P________PP___ IO141965 12.1200 81.2051 -1 12.1200 81.2051 TC 35 12.0874 81.2157 3 7 353
1965364N08088 1965 125 NI BB NOT_NAMED 1966-01-02 00:00:00 TS 12.4828 81.2071 main 108 108 O________OP___ jtwc_io IO141965 12.5000 81.2000 -1 12.5000 81.2000 TC 35 12.4483 81.2213 3 8 7
1965364N08088 1965 125 NI BB NOT_NAMED 1966-01-02 03:00:00 TS 12.9317 81.3083 main 117 113 P________PO___ IO141965 12.9475 81.3125 -1 12.9475 81.3125 TC 35 12.9000 81.3000 3 11 15
1965364N08088 1965 125 NI BB NOT_NAMED 1966-01-02 06:00:00 TS 13.4979 81.4802 main 129 129 O________OP___ jtwc_io IO141965 13.5000 81.5000 -1 13.5000 81.5000 TC 35 13.4938 81.4406 3 13 16
1965364N08088 1965 125 NI BB NOT_NAMED 1966-01-02 09:00:00 TS 14.1767 81.6691 main 157 139 P________PP___ IO141965 14.1775 81.6776 -1 14.1775 81.6776 TC 50 14.1752 81.6521 3 15 16
1965364N08088 1965 125 NI BB NOT_NAMED 1966-01-02 12:00:00 TS 14.8980 81.9042 main 139 99 O________OP___ jtwc_io IO141965 14.9000 81.9000 -1 14.9000 81.9000 TC 65 14.8939 81.9126 3 15 20
1965364N08088 1965 125 NI BB NOT_NAMED 1966-01-02 15:00:00 TS 15.5767 82.1900 main 94 49 P________PO___ IO141965 15.5650 82.1850 -1 15.5650 82.1850 TC 65 15.6000 82.2000 4 14 23
1965364N08088 1965 125 NI BB NOT_NAMED 1966-01-02 18:00:00 TS 16.2126 82.4915 main 49 33 O________OP___ jtwc_io IO141965 16.2000 82.5000 -1 16.2000 82.5000 TC 65 16.2377 82.4746 4 14 25
1965364N08088 1965 125 NI BB NOT_NAMED 1966-01-02 21:00:00 TS 16.8274 82.7902 main 42 15 P________PP___ IO141965 16.8149 82.8002 -1 16.8149 82.8002 TC 65 16.8523 82.7703 4 13 26
1965364N08088 1965 125 NI BB NOT_NAMED 1966-01-03 00:00:00 TS 17.4136 83.0936 main 15 0 O________OP___ jtwc_io IO141965 17.4000 83.1000 -1 17.4000 83.1000 TC 65 17.4408 83.0809 4 13 27
1965364N08088 1965 125 NI BB NOT_NAMED 1966-01-03 03:00:00 TS 17.9766 83.3952 main 0 0 P________PO___ IO141965 17.9649 83.3927 -1 17.9649 83.3927 TC 50 18.0000 83.4000 4 13 28
1965364N08088 1965 125 NI BB NOT_NAMED 1966-01-03 06:00:00 TS 18.5163 83.7074 main 0 0 O________OP___ jtwc_io IO141965 18.5000 83.7000 -1 18.5000 83.7000 TC 35 18.5489 83.7222 4 12 30
1965364N08088 1965 125 NI BB NOT_NAMED 1966-01-03 09:00:00 TS 19.0324 84.0501 main 0 0 P________PP___ IO141965 19.0150 84.0501 -1 19.0150 84.0501 TC 30 19.0673 84.0503 4 12 33
1965364N08088 1965 125 NI BB NOT_NAMED 1966-01-03 12:00:00 TS 19.5174 84.3928 main 0 0 O________OP___ jtwc_io IO141965 19.5000 84.4000 -1 19.5000 84.4000 TC 25 19.5521 84.3783 4 11 33
1965364N08088 1965 125 NI BB NOT_NAMED 1966-01-03 15:00:00 TS 19.9766 84.7052 main 0 0 P________PO___ IO141965 19.9649 84.7077 -1 19.9649 84.7077 TC 25 20.0000 84.7000 1 11 33
1965364N08088 1965 125 NI BB NOT_NAMED 1966-01-03 18:00:00 TS 20.4041 85.0042 main 0 0 O________OP___ jtwc_io IO141965 20.4000 85.0000 -1 20.4000 85.0000 TC 25 20.4102 85.0105 1 10 34
1965364N08088 1965 125 NI BB NOT_NAMED 1966-01-03 21:00:00 TS 20.8002 85.3034 main 0 0 P________PP___ IO141965 20.8076 85.2972 -1 20.8076 85.2972 TC 25 20.7903 85.3117 1 10 36
1965364N08088 1965 125 NI BB NOT_NAMED 1966-01-04 00:00:00 TS 21.1752 85.6035 main 0 0 O________OP___ jtwc_io IO141965 21.2000 85.6000 -1 21.2000 85.6000 TC 25 21.1503 85.6070 1 9 39
1965364N08088 1965 125 NI BB NOT_NAMED 1966-01-04 03:00:00 NR 21.5000 85.9000 main 0 __________O___ IO141965 -1 TC 21.5000 85.9000 1 9 40

About IBTrACS Database

This database is a web-friendly format of International Best Track Archive for Climate Stewardship (IBTrACS), a global best track data archive curated by NOAA dating back to 1842.

Updated: 2021-10-21